Port Washington, WI

1:32 PM CDT on September 21, 2014 (GMT -0500)
Spinnaker Dr. | Change Station
CLOSE
Current Station
Personal Weather Station
Location: Port Washington, WI
Elevation: 709 ft
Nearby Weather Stations

Elev 709 ft 43.40 °N, 87.86 °W | Updated 9 seconds ago

Overcast
Overcast
61.0 °F
Feels Like 61.0 °F
N
15.0
Wind Variable Wind from SW
Gusts 16.0 mph

Today
High -- | Low -- °F
--% Chance of Precip.
Yesterday
High -- | Low -- °F
Precip. -- in
6:37 AM 6:50 PM
Waning Crescent, 6% visible
Pressure 29.94 in
Visibility 10.0 miles
Clouds Scattered Clouds 1400 ft
Mostly Cloudy 3700 ft
Overcast 6500 ft
Dew Point 50 °F
Humidity 68%
Rainfall 0.07 in
Snow Depth Not available.
UV 2 out of 12
Pollen 3.80 out of 12
Air Quality Not available.
Flu Activity Not available.
METAR KETB 211815Z AUTO 34012G15KT 10SM SCT014 BKN037 OVC065 13/10 A2994 RMK AO2

More Conditions Fewer Conditions

Pressure 29.94 in
Visibility 10.0 miles
Clouds Scattered Clouds 1400 ft
Mostly Cloudy 3700 ft
Overcast 6500 ft
Dew Point 50 °F
Humidity 68%
Rainfall 0.07 in
Snow Depth Not available.
UV 2 out of 12
Pollen 3.80 out of 12
Air Quality Not available.
Flu Activity Not available.
METAR KETB 211815Z AUTO 34012G15KT 10SM SCT014 BKN037 OVC065 13/10 A2994 RMK AO2

More Conditions Fewer Conditions

10-Day Weather Forecast

Almanac

Astronomy

Sep. 21, 2014 Rise Set
Actual Time 6:37 AM CDT 6:50 PM CDT
Civil Twilight 6:09 AM CDT 7:19 PM CDT
Nautical Twilight 5:35 AM CDT 7:52 PM CDT
Astronomical Twilight 5:01 AM CDT 8:26 PM CDT
Moon 4:07 AM CDT 5:29 PM CDT
Length of Visible Light 13h 10m
Length of Day
12h 13m
Tomorrow will be 2m 56s shorter.
Waning Crescent, 6% of the Moon is Illuminated
Today
Waning Crescent
Sep 24
New
Oct 1
First Quarter
Oct 8
Full
Oct 15
Last Quarter

Today's Extremes

State Highs State Lows

Community

WunderPhotos

Upload Photos

1,755,212 photos uploaded!

WunderBlogs® & News

Nearby

Snow Depth

Station Depth Elevation
No new snow has been reported.

Earthquake Activity

City Distance Mag. Time & Date
No recent earthquake activity has been reported nearby.
Minimum magnitude displayed is 2.5.

Coastal Water Temperatures

Place Temperature
No Stations Reporting

Nearby Weather Stations